createdAt,value
2023-05-14T00:00:31.459Z,20.20
2023-05-14T00:02:58.566Z,22.90
2023-05-14T00:05:25.962Z,19.83
2023-05-14T00:07:53.489Z,22.65
2023-05-14T00:10:21.972Z,22.58
2023-05-14T00:12:49.831Z,20.08
2023-05-14T00:15:16.974Z,23.45
2023-05-14T00:17:44.168Z,21.67
2023-05-14T00:20:12.368Z,18.95
2023-05-14T00:22:39.859Z,21.20
2023-05-14T00:25:07.481Z,22.58
2023-05-14T00:27:35.456Z,22.70
2023-05-14T00:30:03.155Z,18.27
2023-05-14T00:32:30.394Z,21.73
2023-05-14T00:34:58.640Z,22.50
2023-05-14T00:37:25.796Z,20.48
2023-05-14T00:39:52.960Z,18.95
2023-05-14T00:42:20.312Z,20.33
2023-05-14T00:44:47.497Z,20.08
2023-05-14T00:47:15.458Z,20.95
2023-05-14T00:49:43.291Z,21.90
2023-05-14T00:52:11.495Z,19.52
2023-05-14T00:54:38.892Z,17.52
2023-05-14T00:57:06.952Z,20.23
2023-05-14T00:59:34.610Z,20.58
2023-05-14T01:02:01.947Z,23.08
2023-05-14T01:04:29.600Z,21.30
2023-05-14T01:07:09.169Z,20.73
2023-05-14T01:09:39.554Z,19.83
2023-05-14T01:12:12.801Z,22.75
2023-05-14T01:14:46.209Z,20.38
2023-05-14T01:17:14.958Z,20.13
2023-05-14T01:19:43.744Z,22.65
2023-05-14T01:22:13.019Z,25.65
2023-05-14T01:24:40.578Z,22.00
2023-05-14T01:27:10.847Z,22.58
2023-05-14T01:32:07.185Z,22.10
2023-05-14T01:34:36.289Z,26.80
2023-05-14T01:37:04.935Z,23.55
2023-05-14T01:39:32.500Z,21.52
2023-05-14T01:42:00.518Z,22.67
2023-05-14T01:44:30.834Z,23.25
2023-05-14T01:46:58.826Z,28.38
2023-05-14T01:49:26.085Z,22.50
2023-05-14T01:51:56.090Z,28.17
2023-05-14T01:54:23.246Z,22.58
2023-05-14T01:56:50.838Z,21.67
2023-05-14T01:59:20.618Z,22.10
2023-05-14T02:01:47.843Z,24.30
2023-05-14T02:04:15.578Z,22.73
2023-05-14T02:06:42.941Z,22.40
2023-05-14T02:09:10.475Z,21.42
2023-05-14T02:11:37.689Z,20.65
2023-05-14T02:14:04.964Z,23.55
2023-05-14T02:16:32.406Z,22.15
2023-05-14T02:18:59.875Z,21.23
2023-05-14T02:21:27.149Z,25.92
2023-05-14T02:23:54.501Z,21.90
2023-05-14T02:26:21.607Z,24.50
2023-05-14T02:28:48.822Z,21.98
2023-05-14T02:31:17.601Z,19.77
2023-05-14T02:33:44.923Z,22.80
2023-05-14T02:36:12.181Z,24.05
2023-05-14T02:38:39.504Z,28.30
2023-05-14T02:41:06.881Z,21.38
2023-05-14T02:43:34.072Z,24.35
2023-05-14T02:46:01.368Z,20.55
2023-05-14T02:48:28.834Z,23.38
2023-05-14T02:50:56.112Z,23.08
2023-05-14T02:53:23.293Z,23.92
2023-05-14T02:55:50.577Z,20.75
2023-05-14T02:58:17.840Z,19.88
2023-05-14T03:00:48.492Z,24.65
2023-05-14T03:03:15.707Z,21.85
2023-05-14T03:05:43.456Z,26.23
2023-05-14T03:08:10.754Z,24.52
2023-05-14T03:10:37.963Z,22.40
2023-05-14T03:13:05.437Z,22.10
2023-05-14T03:15:32.652Z,22.45
2023-05-14T03:17:59.869Z,24.30
2023-05-14T03:20:27.219Z,25.52
2023-05-14T03:22:54.711Z,23.42
2023-05-14T03:25:21.901Z,24.92
2023-05-14T03:27:49.038Z,23.90
2023-05-14T03:30:17.375Z,26.00
2023-05-14T03:32:44.939Z,21.67
2023-05-14T03:35:13.849Z,24.38
2023-05-14T03:37:41.096Z,23.95
2023-05-14T03:40:08.666Z,22.08
2023-05-14T03:42:36.913Z,21.85
2023-05-14T03:45:04.257Z,22.23
2023-05-14T03:47:31.449Z,22.15
2023-05-14T03:50:01.382Z,23.17
2023-05-14T03:52:30.710Z,24.17
2023-05-14T03:54:57.923Z,22.25
2023-05-14T03:57:28.207Z,21.13
2023-05-14T03:59:59.802Z,24.02
2023-05-14T04:04:56.009Z,21.52
2023-05-14T04:07:23.415Z,22.92
2023-05-14T04:09:50.719Z,23.95
2023-05-14T04:12:18.759Z,24.70
2023-05-14T04:14:45.967Z,19.73
2023-05-14T04:17:13.176Z,22.90
2023-05-14T04:19:40.462Z,24.63
2023-05-14T04:22:07.201Z,22.35
2023-05-14T04:24:34.365Z,23.83
2023-05-14T04:27:03.779Z,21.20
2023-05-14T04:29:31.066Z,21.15
2023-05-14T04:31:58.350Z,24.05
2023-05-14T04:34:26.171Z,21.48
2023-05-14T04:36:53.313Z,23.42
2023-05-14T04:39:20.497Z,23.80
2023-05-14T04:41:47.671Z,22.83
2023-05-14T04:44:14.869Z,21.15
2023-05-14T04:46:42.380Z,20.40
2023-05-14T04:49:09.696Z,18.85
2023-05-14T04:51:36.837Z,22.23
2023-05-14T04:54:04.069Z,18.77
2023-05-14T04:56:31.396Z,17.42
2023-05-14T04:58:58.083Z,19.67
2023-05-14T05:01:25.366Z,18.35
2023-05-14T05:03:52.715Z,18.45
2023-05-14T05:06:20.017Z,18.42
2023-05-14T05:08:47.113Z,18.67
2023-05-14T05:11:14.295Z,18.70
2023-05-14T05:13:41.880Z,21.02
2023-05-14T05:16:09.174Z,18.52
2023-05-14T05:18:36.388Z,17.90
2023-05-14T05:21:03.821Z,18.20
2023-05-14T05:23:31.260Z,17.13
2023-05-14T05:25:58.433Z,19.83
2023-05-14T05:28:25.581Z,18.05
2023-05-14T05:30:52.920Z,19.90
2023-05-14T05:33:20.219Z,21.30
2023-05-14T05:35:48.317Z,20.42
2023-05-14T05:38:15.716Z,18.85
2023-05-14T05:40:45.277Z,17.27
2023-05-14T05:43:13.943Z,18.67
2023-05-14T05:45:41.603Z,20.20
2023-05-14T05:48:12.148Z,18.00
2023-05-14T05:50:39.098Z,19.83
2023-05-14T05:53:06.208Z,17.55
2023-05-14T05:55:33.410Z,16.42
2023-05-14T05:58:00.188Z,16.15
2023-05-14T06:00:27.562Z,17.30
2023-05-14T06:02:56.160Z,17.08
2023-05-14T06:05:23.737Z,15.77
2023-05-14T06:07:50.942Z,22.75
2023-05-14T06:10:18.072Z,16.25
2023-05-14T06:12:44.859Z,15.38
2023-05-14T06:15:12.256Z,16.20
2023-05-14T06:17:39.724Z,13.70
2023-05-14T06:20:07.954Z,14.43
2023-05-14T06:22:35.429Z,16.92
2023-05-14T06:25:04.940Z,16.42
2023-05-14T06:27:32.114Z,14.07
2023-05-14T06:29:59.362Z,17.52
2023-05-14T06:32:26.197Z,15.77
2023-05-14T06:34:53.438Z,16.63
2023-05-14T06:37:20.764Z,15.70
2023-05-14T06:39:50.379Z,17.13
2023-05-14T06:42:17.843Z,15.00
2023-05-14T06:44:45.569Z,17.23
2023-05-14T06:47:12.982Z,16.35
2023-05-14T06:49:40.387Z,17.70
2023-05-14T06:52:07.548Z,18.67
2023-05-14T06:54:34.684Z,19.20
2023-05-14T06:57:01.863Z,17.63
2023-05-14T06:59:29.073Z,16.42
2023-05-14T07:01:55.924Z,19.50
2023-05-14T07:04:23.214Z,20.15
2023-05-14T07:06:50.500Z,19.48
2023-05-14T07:09:17.683Z,19.15
2023-05-14T07:11:45.786Z,15.57
2023-05-14T07:14:13.026Z,19.20
2023-05-14T07:16:41.635Z,17.50
2023-05-14T07:19:08.947Z,17.08
2023-05-14T07:21:37.326Z,16.13
2023-05-14T07:24:04.634Z,15.23
2023-05-14T07:26:31.865Z,16.45
2023-05-14T07:28:59.020Z,15.57
2023-05-14T07:31:28.954Z,14.30
2023-05-14T07:33:56.473Z,13.13
2023-05-14T07:36:26.268Z,14.63
2023-05-14T07:38:53.025Z,14.63
2023-05-14T07:41:20.760Z,14.40
2023-05-14T07:43:47.876Z,12.77
2023-05-14T07:46:15.283Z,15.43
2023-05-14T07:48:42.448Z,12.70
2023-05-14T07:51:09.697Z,13.93
2023-05-14T07:53:36.575Z,13.85
2023-05-14T07:56:03.436Z,12.57
2023-05-14T07:58:30.884Z,15.52
2023-05-14T08:00:58.009Z,14.45
2023-05-14T08:03:24.972Z,13.30
2023-05-14T08:05:52.588Z,15.07
2023-05-14T08:08:21.678Z,12.40
2023-05-14T08:10:48.945Z,10.55
2023-05-14T08:13:16.632Z,12.60
2023-05-14T08:15:43.525Z,12.23
2023-05-14T08:18:10.837Z,10.52
2023-05-14T08:20:37.717Z,11.57
2023-05-14T08:23:07.109Z,13.02
2023-05-14T08:28:01.842Z,9.73
2023-05-14T08:30:29.104Z,12.35
2023-05-14T08:32:56.479Z,12.32
2023-05-14T08:35:23.274Z,11.88
2023-05-14T08:37:50.442Z,12.13
2023-05-14T08:40:17.821Z,11.13
2023-05-14T08:42:47.940Z,11.63
2023-05-14T08:45:25.751Z,9.77
2023-05-14T08:47:53.541Z,13.23
2023-05-14T08:50:23.057Z,10.45
2023-05-14T08:52:51.137Z,9.02
2023-05-14T08:55:20.937Z,10.27
2023-05-14T08:57:48.648Z,12.13
2023-05-14T09:00:15.943Z,9.45
2023-05-14T09:02:44.768Z,9.20
2023-05-14T09:05:12.486Z,11.88
2023-05-14T09:07:39.941Z,12.30
2023-05-14T09:10:09.027Z,11.35
2023-05-14T09:12:38.413Z,9.80
2023-05-14T09:15:06.565Z,9.65
2023-05-14T09:17:34.812Z,10.10
2023-05-14T09:20:01.732Z,13.25
2023-05-14T09:22:34.324Z,10.57
2023-05-14T09:25:06.172Z,11.13
2023-05-14T09:27:33.923Z,10.02
2023-05-14T09:30:11.951Z,11.23
2023-05-14T09:32:40.773Z,10.15
2023-05-14T09:35:22.031Z,11.70
2023-05-14T09:37:52.000Z,11.50
2023-05-14T09:40:20.859Z,12.57
2023-05-14T09:42:49.283Z,12.73
2023-05-14T09:45:16.760Z,11.80
2023-05-14T09:47:44.999Z,9.57
2023-05-14T09:50:12.648Z,11.57
2023-05-14T09:52:39.946Z,10.88
2023-05-14T09:55:07.914Z,9.43
2023-05-14T09:57:35.384Z,10.93
2023-05-14T10:00:02.665Z,11.40
2023-05-14T10:02:38.177Z,11.18
2023-05-14T10:05:06.808Z,11.68
2023-05-14T10:07:42.321Z,9.75
2023-05-14T10:10:16.916Z,10.20
2023-05-14T10:12:46.402Z,10.52
2023-05-14T10:15:17.835Z,10.07
2023-05-14T10:17:55.614Z,12.93
2023-05-14T10:20:25.009Z,11.10
2023-05-14T10:22:52.867Z,11.98
2023-05-14T10:25:20.294Z,9.77
2023-05-14T10:27:47.444Z,10.90
2023-05-14T10:30:14.303Z,10.13
2023-05-14T10:32:42.141Z,12.00
2023-05-14T10:35:26.272Z,9.45
2023-05-14T10:37:53.485Z,12.10
2023-05-14T10:40:23.669Z,8.63
2023-05-14T10:42:51.069Z,10.43
2023-05-14T10:45:18.358Z,12.68
2023-05-14T10:47:48.950Z,10.40
2023-05-14T10:50:17.443Z,13.35
2023-05-14T10:52:48.180Z,12.05
2023-05-14T10:55:19.828Z,10.23
2023-05-14T10:57:47.140Z,11.45
2023-05-14T11:00:17.379Z,12.18
2023-05-14T11:02:47.403Z,9.50
2023-05-14T11:05:17.709Z,8.93
2023-05-14T11:07:47.115Z,9.48
2023-05-14T11:10:21.439Z,9.90
2023-05-14T11:12:50.904Z,9.38
2023-05-14T11:15:20.512Z,10.25
2023-05-14T11:17:48.354Z,12.23
2023-05-14T11:20:16.763Z,9.50
2023-05-14T11:22:44.910Z,9.50
2023-05-14T11:25:15.968Z,8.93
2023-05-14T11:27:47.892Z,11.07
2023-05-14T11:30:19.815Z,9.48
2023-05-14T11:32:50.522Z,10.50
2023-05-14T11:35:47.338Z,10.38
2023-05-14T11:38:18.670Z,10.95
2023-05-14T11:40:56.327Z,9.35
2023-05-14T11:43:28.412Z,9.23
2023-05-14T11:45:55.806Z,12.20
2023-05-14T11:48:26.439Z,12.07
2023-05-14T11:50:53.829Z,11.75
2023-05-14T11:53:25.514Z,9.85
2023-05-14T11:55:54.542Z,11.48
2023-05-14T11:58:24.191Z,10.55
2023-05-14T12:00:52.683Z,12.43
2023-05-14T12:03:26.280Z,11.00
2023-05-14T12:05:59.843Z,10.88
2023-05-14T12:08:29.089Z,10.52
2023-05-14T12:10:57.787Z,11.05
2023-05-14T12:13:29.079Z,11.52
2023-05-14T12:15:57.621Z,10.82
2023-05-14T12:18:40.452Z,11.07
2023-05-14T12:21:08.521Z,11.50
2023-05-14T12:23:59.350Z,11.77
2023-05-14T12:26:27.551Z,11.68
2023-05-14T12:29:02.031Z,10.82
2023-05-14T12:31:30.311Z,13.20
2023-05-14T12:33:57.843Z,10.65
2023-05-14T12:36:25.802Z,10.15
2023-05-14T12:39:03.763Z,10.90
2023-05-14T12:41:31.267Z,10.60
2023-05-14T12:43:58.905Z,12.23
2023-05-14T12:46:28.412Z,11.15
2023-05-14T12:48:55.805Z,10.38
2023-05-14T12:51:22.848Z,9.07
2023-05-14T12:53:54.216Z,10.10
2023-05-14T12:56:21.532Z,9.88
2023-05-14T12:58:48.357Z,10.85
2023-05-14T13:01:15.120Z,9.18
2023-05-14T13:03:41.994Z,9.38
2023-05-14T13:06:09.074Z,10.65
2023-05-14T13:08:35.942Z,8.60
2023-05-14T13:11:02.666Z,10.57
2023-05-14T13:13:29.559Z,9.30
2023-05-14T13:15:56.356Z,9.32
2023-05-14T13:18:23.141Z,11.55
2023-05-14T13:20:49.969Z,10.00
2023-05-14T13:23:16.771Z,10.05
2023-05-14T13:25:43.745Z,9.07
2023-05-14T13:28:10.756Z,10.07
2023-05-14T13:30:38.451Z,11.43
2023-05-14T13:33:05.835Z,10.57
2023-05-14T13:35:34.625Z,13.73
2023-05-14T13:38:01.907Z,9.18
2023-05-14T13:40:28.586Z,10.35
2023-05-14T13:42:55.393Z,10.48
2023-05-14T13:45:22.347Z,11.40
2023-05-14T13:47:51.508Z,11.18
2023-05-14T13:52:48.372Z,9.98
2023-05-14T13:55:18.552Z,10.32
2023-05-14T13:57:45.820Z,11.60
2023-05-14T14:00:13.516Z,11.30
2023-05-14T14:02:40.331Z,11.68
2023-05-14T14:05:10.243Z,10.65
2023-05-14T14:07:37.019Z,10.85
2023-05-14T14:10:04.822Z,10.50
2023-05-14T14:12:32.362Z,10.68
2023-05-14T14:14:59.847Z,12.40
2023-05-14T14:17:27.312Z,11.23
2023-05-14T14:19:56.711Z,11.00
2023-05-14T14:22:26.159Z,10.65
2023-05-14T14:24:55.321Z,8.82
2023-05-14T14:27:22.430Z,9.70
2023-05-14T14:29:49.596Z,11.77
2023-05-14T14:32:16.778Z,10.10
2023-05-14T14:34:43.959Z,8.93
2023-05-14T14:37:11.203Z,10.40
2023-05-14T14:39:38.310Z,9.13
2023-05-14T14:42:05.757Z,13.77
2023-05-14T14:44:32.963Z,13.02
2023-05-14T14:46:59.835Z,10.43
2023-05-14T14:49:27.941Z,8.98
2023-05-14T14:51:54.989Z,8.00
2023-05-14T14:54:21.764Z,12.82
2023-05-14T14:56:52.650Z,9.82
2023-05-14T14:59:19.457Z,10.05
2023-05-14T15:01:47.791Z,9.07
2023-05-14T15:04:15.186Z,8.77
2023-05-14T15:06:42.417Z,10.10
2023-05-14T15:09:09.797Z,11.95
2023-05-14T15:11:38.268Z,9.18
2023-05-14T15:14:06.239Z,8.82
2023-05-14T15:16:35.633Z,10.65
2023-05-14T15:21:29.838Z,8.63
2023-05-14T15:23:57.144Z,10.07
2023-05-14T15:26:24.447Z,10.95
2023-05-14T15:28:52.757Z,13.20
2023-05-14T15:31:20.004Z,11.88
2023-05-14T15:33:46.913Z,9.90
2023-05-14T15:36:16.749Z,10.82
2023-05-14T15:38:44.091Z,10.27
2023-05-14T15:41:10.857Z,11.43
2023-05-14T15:43:37.657Z,12.57
2023-05-14T15:46:04.904Z,10.50
2023-05-14T15:48:32.161Z,9.70
2023-05-14T15:50:59.298Z,10.30
2023-05-14T15:53:26.127Z,11.48
2023-05-14T15:55:53.306Z,10.77
2023-05-14T15:58:20.607Z,12.20
2023-05-14T16:00:47.766Z,12.15
2023-05-14T16:03:17.669Z,10.27
2023-05-14T16:05:45.048Z,8.82
2023-05-14T16:08:12.283Z,10.57
2023-05-14T16:10:39.036Z,11.88
2023-05-14T16:13:05.841Z,11.60
2023-05-14T16:15:33.015Z,11.73
2023-05-14T16:18:00.334Z,11.70
2023-05-14T16:20:27.109Z,9.07
2023-05-14T16:22:54.254Z,8.70
2023-05-14T16:25:21.512Z,10.77
2023-05-14T16:27:49.041Z,11.60
2023-05-14T16:30:16.251Z,10.18
2023-05-14T16:32:43.478Z,10.80
2023-05-14T16:35:10.789Z,12.20
2023-05-14T16:37:37.548Z,11.32
2023-05-14T16:40:04.998Z,12.07
2023-05-14T16:42:32.100Z,14.70
2023-05-14T16:44:58.846Z,10.20
2023-05-14T16:47:26.032Z,12.18
2023-05-14T16:49:55.779Z,15.38
2023-05-14T16:52:22.507Z,14.30
2023-05-14T16:54:52.056Z,12.93
2023-05-14T16:57:19.203Z,11.40
2023-05-14T16:59:46.447Z,14.63
2023-05-14T17:02:13.639Z,12.13
2023-05-14T17:04:42.287Z,12.13
2023-05-14T17:07:09.824Z,12.90
2023-05-14T17:09:37.078Z,14.80
2023-05-14T17:12:04.605Z,12.77
2023-05-14T17:14:32.087Z,13.82
2023-05-14T17:16:59.354Z,11.32
2023-05-14T17:19:26.604Z,12.32
2023-05-14T17:21:53.816Z,12.07
2023-05-14T17:24:21.023Z,12.88
2023-05-14T17:26:47.817Z,14.02
2023-05-14T17:29:15.035Z,13.00
2023-05-14T17:31:41.878Z,13.18
2023-05-14T17:34:09.215Z,13.07
2023-05-14T17:36:36.476Z,14.65
2023-05-14T17:39:03.659Z,16.40
2023-05-14T17:41:30.811Z,13.50
2023-05-14T17:44:03.942Z,14.57
2023-05-14T17:46:34.293Z,15.30
2023-05-14T17:49:01.811Z,16.10
2023-05-14T17:51:28.916Z,17.98
2023-05-14T17:54:01.816Z,18.90
2023-05-14T17:56:30.034Z,13.98
2023-05-14T17:58:57.801Z,16.60
2023-05-14T18:01:35.269Z,15.75
2023-05-14T18:04:22.896Z,16.60
2023-05-14T18:07:15.272Z,16.42
2023-05-14T18:09:42.638Z,18.02
2023-05-14T18:12:10.636Z,14.18
2023-05-14T18:14:40.059Z,15.27
2023-05-14T18:17:11.595Z,15.55
2023-05-14T18:19:56.598Z,12.63
2023-05-14T18:23:28.693Z,14.10
2023-05-14T18:25:56.618Z,12.43
2023-05-14T18:28:27.072Z,12.02
2023-05-14T18:31:00.024Z,15.55
2023-05-14T18:33:27.249Z,16.50
2023-05-14T18:35:54.524Z,14.35
2023-05-14T18:38:21.709Z,14.90
2023-05-14T18:40:49.424Z,14.85
2023-05-14T18:43:18.409Z,15.25
2023-05-14T18:45:48.536Z,15.13
2023-05-14T18:48:18.948Z,15.70
2023-05-14T18:50:46.126Z,16.75
2023-05-14T18:53:12.889Z,14.57
2023-05-14T18:55:40.562Z,16.70
2023-05-14T18:58:07.785Z,17.33
2023-05-14T19:00:34.933Z,13.40
2023-05-14T19:03:02.182Z,19.20
2023-05-14T19:05:29.612Z,15.32
2023-05-14T19:07:57.003Z,14.95
2023-05-14T19:10:24.176Z,13.32
2023-05-14T19:12:51.419Z,13.27
2023-05-14T19:15:20.988Z,14.32
2023-05-14T19:17:49.023Z,14.57
2023-05-14T19:20:16.229Z,15.50
2023-05-14T19:22:45.679Z,13.45
2023-05-14T19:25:12.957Z,14.68
2023-05-14T19:27:42.940Z,14.27
2023-05-14T19:32:38.022Z,14.70
2023-05-14T19:35:06.200Z,15.07
2023-05-14T19:37:33.641Z,13.18
2023-05-14T19:40:00.760Z,17.80
2023-05-14T19:42:28.029Z,13.68
2023-05-14T19:44:55.796Z,15.05
2023-05-14T19:47:23.033Z,15.68
2023-05-14T19:49:50.345Z,15.20
2023-05-14T19:52:17.486Z,15.60
2023-05-14T19:54:44.203Z,16.13
2023-05-14T19:57:11.348Z,14.85
2023-05-14T19:59:40.523Z,15.38
2023-05-14T20:02:09.281Z,14.27
2023-05-14T20:04:41.544Z,14.25
2023-05-14T20:07:08.600Z,12.27
2023-05-14T20:09:35.709Z,15.73
2023-05-14T20:12:02.428Z,12.57
2023-05-14T20:14:29.694Z,13.05
2023-05-14T20:16:57.907Z,15.55
2023-05-14T20:19:26.641Z,12.20
2023-05-14T20:21:53.446Z,13.57
2023-05-14T20:24:20.581Z,14.15
2023-05-14T20:26:47.779Z,15.05
2023-05-14T20:29:14.960Z,14.90
2023-05-14T20:31:41.799Z,14.35
2023-05-14T20:34:08.901Z,13.90
2023-05-14T20:36:36.225Z,16.73
2023-05-14T20:39:04.899Z,16.83
2023-05-14T20:41:32.386Z,18.05
2023-05-14T20:43:59.684Z,14.95
2023-05-14T20:46:26.913Z,13.68
2023-05-14T20:48:57.258Z,14.05
2023-05-14T20:51:24.419Z,14.65
2023-05-14T20:53:51.809Z,11.40
2023-05-14T20:56:18.980Z,12.40
2023-05-14T20:58:46.381Z,14.10
2023-05-14T21:01:13.487Z,14.38
2023-05-14T21:03:41.031Z,14.90
2023-05-14T21:06:08.518Z,12.95
2023-05-14T21:08:37.654Z,13.70
2023-05-14T21:11:04.826Z,12.95
2023-05-14T21:13:31.540Z,16.98
2023-05-14T21:16:00.277Z,14.65
2023-05-14T21:18:30.851Z,15.73
2023-05-14T21:20:58.098Z,14.82
2023-05-14T21:23:25.395Z,16.92
2023-05-14T21:25:54.646Z,15.07
2023-05-14T21:28:24.467Z,16.40
2023-05-14T21:30:53.966Z,15.02
2023-05-14T21:33:21.159Z,15.80
2023-05-14T21:35:48.566Z,15.70
2023-05-14T21:38:15.948Z,14.18
2023-05-14T21:40:43.400Z,14.00
2023-05-14T21:43:10.584Z,17.50
2023-05-14T21:45:37.837Z,16.40
2023-05-14T21:48:05.195Z,14.88
2023-05-14T21:50:32.034Z,18.75
2023-05-14T21:52:59.305Z,21.83
2023-05-14T21:55:27.562Z,14.82
2023-05-14T21:57:55.041Z,18.42
2023-05-14T22:00:25.194Z,19.38
2023-05-14T22:05:19.981Z,14.18
2023-05-14T22:07:49.238Z,17.85
2023-05-14T22:10:17.617Z,16.50
2023-05-14T22:12:45.346Z,16.33
2023-05-14T22:15:12.718Z,16.33
2023-05-14T22:17:41.718Z,12.75
2023-05-14T22:20:14.225Z,17.65
2023-05-14T22:22:41.377Z,14.10
2023-05-14T22:25:08.904Z,16.92
2023-05-14T22:27:35.770Z,15.00
2023-05-14T22:30:02.917Z,14.93
2023-05-14T22:32:30.072Z,15.60
2023-05-14T22:34:57.278Z,16.77
2023-05-14T22:37:24.440Z,16.17
2023-05-14T22:39:51.614Z,17.55
2023-05-14T22:42:20.212Z,17.85
2023-05-14T22:44:47.474Z,16.58
2023-05-14T22:47:14.676Z,16.98
2023-05-14T22:49:42.390Z,18.08
2023-05-14T22:52:10.097Z,17.55
2023-05-14T22:54:36.889Z,15.85
2023-05-14T22:57:06.318Z,15.60
2023-05-14T22:59:33.821Z,15.85
2023-05-14T23:02:01.050Z,18.58
2023-05-14T23:04:28.252Z,18.25
2023-05-14T23:06:55.641Z,15.52
2023-05-14T23:09:22.740Z,19.77
2023-05-14T23:11:49.934Z,16.00
2023-05-14T23:14:18.402Z,19.08
2023-05-14T23:16:45.645Z,19.70
2023-05-14T23:19:13.018Z,17.05
2023-05-14T23:21:40.349Z,16.10
2023-05-14T23:24:07.679Z,15.50
2023-05-14T23:26:34.968Z,16.33
2023-05-14T23:29:02.105Z,18.15
2023-05-14T23:31:29.378Z,16.42
2023-05-14T23:33:57.225Z,17.23
2023-05-14T23:36:24.604Z,21.05
2023-05-14T23:38:51.872Z,16.02
2023-05-14T23:41:19.071Z,19.08
2023-05-14T23:43:46.394Z,18.33
2023-05-14T23:46:13.570Z,21.00
2023-05-14T23:48:40.762Z,18.92
2023-05-14T23:51:08.147Z,20.20
2023-05-14T23:53:35.366Z,21.15
2023-05-14T23:56:02.474Z,19.08
2023-05-14T23:58:30.220Z,21.45
